createdAt,value
2018-04-17T00:00:37.423Z,1.93
2018-04-17T00:03:05.096Z,2.07
2018-04-17T00:05:33.788Z,1.50
2018-04-17T00:08:01.461Z,1.73
2018-04-17T00:10:29.130Z,1.73
2018-04-17T00:12:56.777Z,2.17
2018-04-17T00:15:24.403Z,2.50
2018-04-17T00:17:52.028Z,1.43
2018-04-17T00:20:19.680Z,1.60
2018-04-17T00:22:47.314Z,2.00
2018-04-17T00:25:14.890Z,1.20
2018-04-17T00:27:42.532Z,1.70
2018-04-17T00:30:10.129Z,2.10
2018-04-17T00:32:37.773Z,2.13
2018-04-17T00:35:05.390Z,1.27
2018-04-17T00:37:33.024Z,1.60
2018-04-17T00:40:00.742Z,1.63
2018-04-17T00:42:28.343Z,1.60
2018-04-17T00:44:56.192Z,1.70
2018-04-17T00:47:23.888Z,1.90
2018-04-17T00:49:51.489Z,1.20
2018-04-17T00:52:19.178Z,1.40
2018-04-17T00:54:46.878Z,1.30
2018-04-17T00:57:14.489Z,1.43
2018-04-17T00:59:42.120Z,1.83
2018-04-17T01:02:09.809Z,2.07
2018-04-17T01:04:37.440Z,1.90
2018-04-17T01:07:05.090Z,2.30
2018-04-17T01:09:32.700Z,1.60
2018-04-17T01:12:00.341Z,1.57
2018-04-17T01:14:27.971Z,1.80
2018-04-17T01:16:55.635Z,2.10
2018-04-17T01:19:23.296Z,1.50
2018-04-17T01:21:50.885Z,2.13
2018-04-17T01:24:18.584Z,1.70
2018-04-17T01:26:46.184Z,2.10
2018-04-17T01:29:13.786Z,1.47
2018-04-17T01:31:41.448Z,2.30
2018-04-17T01:34:09.033Z,1.70
2018-04-17T01:36:36.734Z,1.73
2018-04-17T01:39:04.479Z,1.60
2018-04-17T01:41:32.121Z,1.93
2018-04-17T01:43:59.746Z,1.97
2018-04-17T01:46:27.425Z,1.83
2018-04-17T01:48:55.061Z,1.80
2018-04-17T01:51:22.635Z,1.77
2018-04-17T01:53:50.292Z,1.30
2018-04-17T01:56:17.971Z,2.30
2018-04-17T01:58:45.691Z,2.00
2018-04-17T02:01:13.311Z,2.30
2018-04-17T02:03:41.451Z,1.80
2018-04-17T02:06:09.071Z,1.87
2018-04-17T02:08:36.664Z,1.70
2018-04-17T02:11:04.339Z,2.00
2018-04-17T02:13:32.418Z,1.60
2018-04-17T02:15:59.999Z,1.60
2018-04-17T02:18:27.662Z,1.70
2018-04-17T02:20:55.231Z,2.37
2018-04-17T02:23:22.847Z,1.40
2018-04-17T02:25:50.636Z,1.63
2018-04-17T02:28:18.255Z,1.77
2018-04-17T02:30:46.261Z,1.77
2018-04-17T02:33:13.895Z,2.00
2018-04-17T02:35:41.479Z,2.00
2018-04-17T02:38:09.135Z,1.70
2018-04-17T02:40:37.226Z,2.10
2018-04-17T02:43:04.827Z,1.90
2018-04-17T02:45:33.221Z,1.83
2018-04-17T02:48:00.847Z,1.63
2018-04-17T02:50:28.538Z,1.80
2018-04-17T02:52:56.214Z,1.90
2018-04-17T02:55:23.812Z,1.23
2018-04-17T02:57:51.472Z,1.80
2018-04-17T03:00:19.125Z,1.67
2018-04-17T03:02:46.764Z,2.77
2018-04-17T03:05:14.449Z,1.50
2018-04-17T03:07:42.050Z,2.03
2018-04-17T03:10:09.638Z,1.77
2018-04-17T03:12:37.275Z,1.80
2018-04-17T03:15:04.925Z,1.83
2018-04-17T03:17:32.610Z,1.70
2018-04-17T03:20:00.263Z,2.10
2018-04-17T03:22:27.888Z,1.53
2018-04-17T03:24:55.484Z,2.17
2018-04-17T03:27:23.204Z,2.47
2018-04-17T03:29:50.822Z,1.70
2018-04-17T03:32:18.514Z,1.90
2018-04-17T03:34:46.136Z,1.83
2018-04-17T03:37:13.852Z,2.20
2018-04-17T03:39:41.496Z,2.20
2018-04-17T03:42:09.169Z,2.30
2018-04-17T03:44:36.860Z,2.47
2018-04-17T03:47:04.460Z,2.50
2018-04-17T03:49:32.095Z,2.40
2018-04-17T03:51:59.841Z,2.37
2018-04-17T03:54:27.483Z,2.30
2018-04-17T03:56:55.155Z,1.90
2018-04-17T03:59:22.793Z,1.43
2018-04-17T04:01:50.385Z,2.27
2018-04-17T04:04:18.010Z,1.77
2018-04-17T04:06:45.656Z,2.30
2018-04-17T04:09:13.328Z,2.10
2018-04-17T04:11:40.988Z,2.40
2018-04-17T04:14:08.588Z,1.70
2018-04-17T04:16:47.985Z,2.27
2018-04-17T04:19:27.292Z,3.17
2018-04-17T04:22:06.677Z,2.67
2018-04-17T04:24:45.861Z,2.50
2018-04-17T04:27:13.452Z,2.80
2018-04-17T04:29:42.214Z,2.33
2018-04-17T04:32:09.791Z,2.20
2018-04-17T04:34:38.319Z,2.37
2018-04-17T04:37:05.982Z,2.23
2018-04-17T04:39:33.586Z,2.17
2018-04-17T04:42:01.233Z,1.87
2018-04-17T04:44:28.879Z,1.80
2018-04-17T04:46:56.510Z,1.60
2018-04-17T04:49:24.173Z,1.93
2018-04-17T04:51:51.791Z,1.80
2018-04-17T04:54:19.440Z,1.77
2018-04-17T04:56:47.081Z,1.80
2018-04-17T04:59:14.719Z,1.90
2018-04-17T05:01:42.372Z,2.07
2018-04-17T05:04:10.070Z,2.60
2018-04-17T05:06:37.845Z,2.70
2018-04-17T05:09:06.266Z,3.33
2018-04-17T05:11:33.937Z,3.63
2018-04-17T05:14:01.636Z,2.60
2018-04-17T05:16:29.342Z,2.37
2018-04-17T05:18:57.009Z,2.73
2018-04-17T05:21:24.678Z,2.97
2018-04-17T05:23:52.346Z,3.00
2018-04-17T05:26:20.028Z,3.17
2018-04-17T05:28:47.642Z,2.67
2018-04-17T05:31:15.274Z,2.40
2018-04-17T05:33:42.912Z,2.27
2018-04-17T05:36:10.620Z,2.40
2018-04-17T05:38:38.207Z,2.63
2018-04-17T05:41:05.857Z,5.00
2018-04-17T05:43:33.454Z,2.13
2018-04-17T05:46:01.091Z,2.37
2018-04-17T05:48:28.715Z,2.20
2018-04-17T05:50:56.378Z,2.03
2018-04-17T05:53:24.046Z,1.77
2018-04-17T05:55:51.688Z,2.00
2018-04-17T05:58:19.416Z,2.23
2018-04-17T06:00:47.067Z,1.83
2018-04-17T06:03:14.831Z,1.93
2018-04-17T06:05:42.540Z,1.80
2018-04-17T06:08:10.243Z,2.00
2018-04-17T06:10:37.946Z,1.50
2018-04-17T06:13:05.593Z,2.37
2018-04-17T06:15:33.255Z,2.10
2018-04-17T06:18:00.881Z,1.73
2018-04-17T06:20:28.596Z,2.60
2018-04-17T06:22:56.248Z,3.13
2018-04-17T06:25:23.856Z,5.10
2018-04-17T06:27:51.501Z,5.37
2018-04-17T06:30:19.148Z,5.73
2018-04-17T06:32:46.757Z,7.30
2018-04-17T06:35:14.420Z,6.60
2018-04-17T06:37:42.024Z,7.83
2018-04-17T06:40:09.643Z,6.50
2018-04-17T06:42:37.341Z,5.80
2018-04-17T06:45:04.997Z,4.77
2018-04-17T06:47:32.603Z,6.40
2018-04-17T06:50:00.375Z,6.17
2018-04-17T06:52:28.692Z,5.23
2018-04-17T06:54:56.374Z,6.03
2018-04-17T06:57:24.102Z,6.37
2018-04-17T06:59:51.793Z,5.43
2018-04-17T07:02:19.420Z,5.03
2018-04-17T07:04:47.049Z,4.73
2018-04-17T07:07:14.692Z,4.97
2018-04-17T07:09:42.347Z,4.60
2018-04-17T07:12:10.046Z,6.30
2018-04-17T07:14:37.727Z,6.47
2018-04-17T07:17:05.427Z,5.70
2018-04-17T07:19:33.059Z,5.63
2018-04-17T07:22:00.706Z,4.97
2018-04-17T07:24:28.396Z,5.20
2018-04-17T07:26:56.130Z,5.03
2018-04-17T07:29:23.909Z,5.70
2018-04-17T07:31:51.584Z,6.30
2018-04-17T07:34:19.292Z,5.90
2018-04-17T07:36:46.929Z,5.90
2018-04-17T07:39:15.265Z,5.57
2018-04-17T07:41:42.987Z,7.00
2018-04-17T07:44:11.780Z,5.93
2018-04-17T07:46:39.477Z,5.70
2018-04-17T07:49:07.144Z,7.10
2018-04-17T07:51:34.734Z,5.90
2018-04-17T07:54:02.418Z,6.20
2018-04-17T07:56:30.106Z,6.67
2018-04-17T07:58:57.708Z,6.23
2018-04-17T08:01:25.407Z,6.00
2018-04-17T08:03:53.029Z,5.37
2018-04-17T08:06:21.659Z,5.70
2018-04-17T08:08:49.321Z,5.23
2018-04-17T08:11:17.001Z,6.63
2018-04-17T08:13:44.625Z,6.90
2018-04-17T08:16:12.244Z,7.10
2018-04-17T08:18:39.924Z,7.30
2018-04-17T08:21:07.573Z,5.03
2018-04-17T08:23:35.216Z,5.67
2018-04-17T08:26:02.893Z,4.90
2018-04-17T08:28:31.590Z,5.93
2018-04-17T08:30:59.363Z,5.53
2018-04-17T08:33:26.952Z,5.70
2018-04-17T08:35:54.770Z,6.23
2018-04-17T08:38:22.412Z,6.73
2018-04-17T08:40:50.063Z,5.93
2018-04-17T08:43:17.699Z,6.23
2018-04-17T08:45:45.317Z,6.00
2018-04-17T08:48:12.977Z,6.77
2018-04-17T08:50:40.622Z,6.30
2018-04-17T08:53:08.260Z,6.10
2018-04-17T08:55:36.469Z,5.03
2018-04-17T08:58:04.162Z,4.03
2018-04-17T09:00:31.831Z,4.30
2018-04-17T09:02:59.556Z,5.20
2018-04-17T09:05:27.262Z,4.37
2018-04-17T09:07:54.917Z,4.70
2018-04-17T09:10:22.757Z,3.07
2018-04-17T09:12:51.689Z,4.33
2018-04-17T09:15:20.170Z,5.80
2018-04-17T09:17:47.879Z,3.97
2018-04-17T09:20:15.529Z,4.67
2018-04-17T09:22:43.372Z,3.93
2018-04-17T09:25:11.008Z,4.80
2018-04-17T09:27:38.748Z,4.00
2018-04-17T09:30:06.691Z,5.10
2018-04-17T09:32:34.279Z,4.23
2018-04-17T09:35:01.903Z,4.53
2018-04-17T09:37:29.697Z,4.50
2018-04-17T09:39:58.030Z,3.33
2018-04-17T09:42:25.677Z,3.97
2018-04-17T09:44:53.278Z,4.30
2018-04-17T09:47:21.012Z,3.30
2018-04-17T09:49:48.630Z,4.67
2018-04-17T09:52:16.281Z,4.23
2018-04-17T09:54:44.072Z,3.73
2018-04-17T09:57:11.732Z,3.50
2018-04-17T09:59:39.598Z,3.73
2018-04-17T10:02:08.062Z,3.03
2018-04-17T10:04:35.782Z,4.17
2018-04-17T10:07:03.411Z,3.77
2018-04-17T10:09:31.057Z,4.17
2018-04-17T10:11:59.610Z,4.47
2018-04-17T10:14:27.257Z,4.80
2018-04-17T10:16:54.873Z,4.20
2018-04-17T10:19:22.549Z,3.50
2018-04-17T10:21:50.202Z,3.53
2018-04-17T10:24:17.875Z,3.20
2018-04-17T10:26:45.606Z,3.77
2018-04-17T10:29:13.215Z,4.10
2018-04-17T10:31:40.923Z,4.10
2018-04-17T10:34:08.539Z,3.97
2018-04-17T10:36:36.207Z,2.73
2018-04-17T10:39:03.934Z,3.20
2018-04-17T10:41:31.580Z,2.40
2018-04-17T10:43:59.185Z,3.23
2018-04-17T10:46:26.836Z,3.67
2018-04-17T10:48:54.445Z,3.07
2018-04-17T10:51:22.106Z,3.00
2018-04-17T10:53:49.797Z,2.70
2018-04-17T10:56:17.403Z,2.70
2018-04-17T10:58:45.089Z,2.37
2018-04-17T11:01:12.711Z,1.70
2018-04-17T11:03:40.391Z,2.73
2018-04-17T11:06:08.022Z,2.10
2018-04-17T11:08:36.867Z,2.23
2018-04-17T11:11:04.496Z,2.30
2018-04-17T11:13:32.295Z,1.90
2018-04-17T11:15:59.916Z,2.53
2018-04-17T11:18:27.675Z,1.77
2018-04-17T11:20:55.342Z,2.83
2018-04-17T11:23:22.983Z,2.13
2018-04-17T11:25:50.617Z,2.77
2018-04-17T11:28:18.305Z,2.17
2018-04-17T11:30:46.010Z,2.07
2018-04-17T11:33:13.667Z,2.40
2018-04-17T11:35:41.319Z,2.20
2018-04-17T11:38:08.934Z,2.00
2018-04-17T11:40:36.630Z,2.37
2018-04-17T11:43:04.390Z,3.17
2018-04-17T11:45:31.986Z,1.90
2018-04-17T11:47:59.654Z,1.50
2018-04-17T11:50:27.294Z,1.90
2018-04-17T11:52:55.015Z,2.10
2018-04-17T11:55:22.642Z,1.83
2018-04-17T11:57:50.303Z,2.27
2018-04-17T12:00:17.962Z,2.13
2018-04-17T12:02:45.582Z,1.97
2018-04-17T12:05:14.238Z,1.77
2018-04-17T12:07:41.880Z,2.13
2018-04-17T12:10:09.605Z,2.00
2018-04-17T12:12:38.460Z,2.57
2018-04-17T12:15:06.096Z,1.70
2018-04-17T12:17:33.796Z,2.10
2018-04-17T12:20:01.448Z,2.20
2018-04-17T12:22:29.126Z,2.53
2018-04-17T12:24:56.799Z,2.30
2018-04-17T12:27:24.469Z,1.77
2018-04-17T12:29:52.116Z,2.00
2018-04-17T12:32:19.716Z,2.07
2018-04-17T12:34:47.389Z,2.20
2018-04-17T12:37:14.979Z,2.10
2018-04-17T12:39:42.646Z,1.30
2018-04-17T12:42:10.274Z,2.07
2018-04-17T12:44:37.999Z,1.70
2018-04-17T12:47:05.618Z,2.00
2018-04-17T12:49:33.235Z,2.27
2018-04-17T12:52:00.999Z,1.70
2018-04-17T12:54:28.616Z,2.30
2018-04-17T12:56:56.332Z,1.90
2018-04-17T12:59:23.948Z,2.30
2018-04-17T13:01:51.611Z,3.23
2018-04-17T13:04:19.257Z,2.43
2018-04-17T13:06:46.927Z,2.77
2018-04-17T13:09:14.597Z,3.20
2018-04-17T13:11:42.207Z,2.07
2018-04-17T13:14:09.938Z,1.93
2018-04-17T13:16:37.571Z,2.33
2018-04-17T13:19:05.267Z,3.00
2018-04-17T13:21:32.869Z,2.63
2018-04-17T13:24:00.576Z,2.10
2018-04-17T13:26:28.228Z,1.93
2018-04-17T13:28:55.896Z,2.03
2018-04-17T13:31:23.518Z,2.20
2018-04-17T13:33:51.174Z,1.87
2018-04-17T13:36:18.888Z,2.30
2018-04-17T13:38:46.572Z,1.93
2018-04-17T13:41:14.281Z,2.17
2018-04-17T13:43:42.013Z,2.20
2018-04-17T13:46:09.639Z,6.40
2018-04-17T13:48:37.352Z,4.67
2018-04-17T13:51:05.089Z,2.97
2018-04-17T13:53:32.756Z,3.10
2018-04-17T13:56:00.874Z,2.83
2018-04-17T13:58:31.508Z,2.30
2018-04-17T14:00:59.167Z,2.57
2018-04-17T14:03:26.845Z,1.97
2018-04-17T14:05:54.517Z,2.00
2018-04-17T14:08:22.203Z,1.63
2018-04-17T14:10:49.779Z,2.57
2018-04-17T14:13:17.534Z,2.37
2018-04-17T14:15:45.231Z,2.00
2018-04-17T14:18:12.856Z,2.70
2018-04-17T14:20:40.547Z,2.40
2018-04-17T14:23:08.252Z,3.87
2018-04-17T14:25:36.029Z,2.60
2018-04-17T14:28:04.466Z,2.27
2018-04-17T14:30:32.872Z,2.20
2018-04-17T14:33:00.533Z,2.07
2018-04-17T14:35:28.186Z,2.40
2018-04-17T14:37:55.986Z,2.00
2018-04-17T14:40:23.726Z,2.00
2018-04-17T14:42:51.415Z,2.50
2018-04-17T14:45:19.114Z,2.20
2018-04-17T14:47:46.789Z,2.00
2018-04-17T14:50:14.504Z,2.30
2018-04-17T14:52:42.231Z,2.23
2018-04-17T14:55:09.901Z,2.53
2018-04-17T14:57:37.666Z,2.87
2018-04-17T15:00:06.053Z,3.37
2018-04-17T15:02:33.701Z,2.93
2018-04-17T15:05:03.678Z,2.13
2018-04-17T15:07:31.591Z,2.20
2018-04-17T15:09:59.216Z,2.10
2018-04-17T15:12:26.958Z,3.40
2018-04-17T15:14:54.700Z,2.23
2018-04-17T15:17:22.315Z,1.87
2018-04-17T15:19:50.049Z,1.40
2018-04-17T15:22:17.782Z,1.83
2018-04-17T15:24:45.486Z,2.00
2018-04-17T15:27:13.174Z,1.70
2018-04-17T15:29:40.892Z,2.00
2018-04-17T15:32:08.657Z,1.83
2018-04-17T15:34:36.388Z,2.10
2018-04-17T15:37:04.156Z,2.30
2018-04-17T15:39:31.968Z,2.30
2018-04-17T15:42:01.667Z,1.67
2018-04-17T15:44:29.534Z,1.90
2018-04-17T15:46:58.765Z,2.20
2018-04-17T15:49:26.628Z,2.40
2018-04-17T15:51:54.433Z,1.93
2018-04-17T15:54:22.614Z,2.00
2018-04-17T15:56:50.254Z,1.83
2018-04-17T15:59:17.999Z,2.63
2018-04-17T16:01:45.715Z,2.47
2018-04-17T16:04:13.343Z,1.93
2018-04-17T16:06:41.014Z,2.43
2018-04-17T16:09:08.759Z,2.27
2018-04-17T16:11:36.408Z,1.60
2018-04-17T16:14:04.240Z,2.20
2018-04-17T16:16:35.001Z,1.87
2018-04-17T16:19:02.665Z,1.70
2018-04-17T16:21:31.064Z,2.10
2018-04-17T16:23:58.799Z,2.10
2018-04-17T16:26:26.521Z,2.57
2018-04-17T16:28:54.928Z,2.33
2018-04-17T16:31:22.887Z,2.70
2018-04-17T16:33:51.457Z,2.27
2018-04-17T16:36:20.361Z,1.90
2018-04-17T16:38:48.212Z,1.97
2018-04-17T16:41:16.695Z,2.47
2018-04-17T16:43:46.388Z,2.40
2018-04-17T16:46:14.264Z,2.53
2018-04-17T16:48:41.979Z,2.80
2018-04-17T16:51:10.473Z,2.20
2018-04-17T16:53:38.836Z,2.27
2018-04-17T16:56:06.507Z,2.20
2018-04-17T16:58:34.206Z,1.70
2018-04-17T17:01:01.950Z,1.60
2018-04-17T17:03:29.576Z,1.80
2018-04-17T17:05:57.310Z,1.97
2018-04-17T17:08:24.975Z,1.80
2018-04-17T17:10:53.771Z,2.67
2018-04-17T17:13:21.507Z,2.67
2018-04-17T17:15:49.155Z,2.13
2018-04-17T17:18:16.897Z,1.80
2018-04-17T17:20:44.628Z,3.17
2018-04-17T17:23:12.720Z,2.50
2018-04-17T17:25:40.560Z,2.50
2018-04-17T17:28:08.331Z,2.60
2018-04-17T17:30:36.664Z,2.87
2018-04-17T17:33:05.693Z,2.27
2018-04-17T17:35:33.530Z,2.60
2018-04-17T17:38:01.207Z,2.70
2018-04-17T17:40:28.914Z,2.63
2018-04-17T17:42:57.797Z,2.13
2018-04-17T17:45:26.638Z,2.30
2018-04-17T17:47:54.302Z,2.37
2018-04-17T17:50:22.118Z,1.77
2018-04-17T17:52:49.860Z,2.20
2018-04-17T17:55:17.596Z,2.77
2018-04-17T17:57:45.315Z,2.50
2018-04-17T18:00:13.056Z,2.23
2018-04-17T18:02:40.881Z,3.03
2018-04-17T18:05:08.903Z,2.93
2018-04-17T18:07:36.645Z,2.53
2018-04-17T18:10:04.525Z,2.20
2018-04-17T18:12:33.454Z,3.20
2018-04-17T18:15:01.173Z,2.50
2018-04-17T18:17:28.990Z,2.60
2018-04-17T18:19:57.907Z,2.80
2018-04-17T18:22:25.731Z,2.40
2018-04-17T18:24:53.465Z,3.20
2018-04-17T18:27:21.263Z,3.30
2018-04-17T18:29:49.077Z,2.30
2018-04-17T18:32:16.899Z,2.40
2018-04-17T18:34:44.582Z,1.90
2018-04-17T18:37:12.418Z,2.60
2018-04-17T18:39:40.204Z,2.20
2018-04-17T18:42:07.911Z,2.10
2018-04-17T18:44:35.621Z,2.50
2018-04-17T18:47:03.362Z,2.10
2018-04-17T18:49:31.502Z,2.53
2018-04-17T18:51:59.255Z,2.80
2018-04-17T18:54:26.991Z,3.40
2018-04-17T18:56:54.873Z,3.43
2018-04-17T18:59:24.036Z,2.90
2018-04-17T19:01:52.781Z,2.33
2018-04-17T19:04:20.479Z,2.10
2018-04-17T19:06:48.243Z,2.33
2018-04-17T19:09:15.943Z,2.17
2018-04-17T19:11:45.839Z,2.40
2018-04-17T19:14:13.699Z,2.63
2018-04-17T19:16:41.405Z,2.70
2018-04-17T19:19:10.875Z,2.80
2018-04-17T19:21:38.616Z,2.30
2018-04-17T19:24:07.947Z,1.83
2018-04-17T19:26:35.719Z,2.50
2018-04-17T19:29:03.516Z,2.73
2018-04-17T19:31:31.293Z,3.60
2018-04-17T19:33:59.868Z,2.50
2018-04-17T19:36:27.508Z,3.20
2018-04-17T19:38:55.579Z,3.40
2018-04-17T19:41:23.289Z,2.97
2018-04-17T19:43:51.996Z,3.23
2018-04-17T19:46:20.863Z,2.93
2018-04-17T19:48:48.653Z,4.00
2018-04-17T19:51:16.362Z,3.03
2018-04-17T19:53:44.047Z,2.70
2018-04-17T19:56:11.857Z,2.67
2018-04-17T19:58:39.693Z,2.67
2018-04-17T20:01:07.670Z,3.30
2018-04-17T20:03:36.989Z,2.90
2018-04-17T20:06:04.851Z,2.67
2018-04-17T20:08:33.451Z,2.87
2018-04-17T20:11:01.329Z,3.83
2018-04-17T20:13:29.153Z,2.77
2018-04-17T20:15:56.885Z,2.83
2018-04-17T20:18:24.748Z,3.17
2018-04-17T20:20:52.441Z,2.87
2018-04-17T20:23:20.621Z,3.27
2018-04-17T20:25:48.305Z,2.20
2018-04-17T20:28:15.940Z,3.10
2018-04-17T20:30:43.808Z,2.87
2018-04-17T20:33:11.433Z,3.33
2018-04-17T20:35:39.066Z,3.93
2018-04-17T20:38:06.743Z,3.20
2018-04-17T20:40:34.419Z,2.70
2018-04-17T20:43:02.160Z,3.50
2018-04-17T20:45:31.129Z,4.17
2018-04-17T20:47:58.779Z,4.20
2018-04-17T20:50:26.490Z,3.37
2018-04-17T20:52:54.294Z,3.30
2018-04-17T20:55:23.227Z,2.73
2018-04-17T20:57:51.847Z,3.00
2018-04-17T21:00:19.700Z,3.60
2018-04-17T21:02:47.581Z,2.90
2018-04-17T21:05:18.100Z,3.90
2018-04-17T21:07:46.722Z,3.40
2018-04-17T21:10:14.722Z,2.70
2018-04-17T21:12:42.489Z,2.93
2018-04-17T21:15:10.140Z,3.80
2018-04-17T21:17:37.846Z,3.00
2018-04-17T21:20:05.451Z,4.07
2018-04-17T21:22:33.130Z,3.53
2018-04-17T21:25:00.874Z,3.70
2018-04-17T21:27:28.614Z,3.03
2018-04-17T21:29:56.286Z,3.30
2018-04-17T21:32:23.947Z,4.83
2018-04-17T21:34:51.653Z,3.30
2018-04-17T21:37:19.307Z,4.83
2018-04-17T21:39:47.380Z,5.53
2018-04-17T21:42:15.067Z,4.00
2018-04-17T21:44:42.680Z,5.10
2018-04-17T21:47:10.326Z,3.20
2018-04-17T21:49:37.992Z,7.17
2018-04-17T21:52:05.669Z,4.90
2018-04-17T21:54:33.352Z,4.70
2018-04-17T21:57:00.976Z,5.00
2018-04-17T21:59:28.589Z,3.70
2018-04-17T22:01:56.238Z,3.77
2018-04-17T22:04:23.927Z,4.30
2018-04-17T22:06:51.641Z,4.00
2018-04-17T22:09:19.303Z,4.03
2018-04-17T22:11:46.975Z,4.03
2018-04-17T22:14:14.628Z,3.53
2018-04-17T22:16:43.220Z,5.00
2018-04-17T22:19:10.845Z,4.47
2018-04-17T22:21:38.558Z,4.00
2018-04-17T22:24:06.219Z,4.17
2018-04-17T22:26:33.852Z,4.20
2018-04-17T22:29:01.445Z,4.20
2018-04-17T22:31:29.195Z,3.90
2018-04-17T22:33:56.803Z,4.00
2018-04-17T22:36:24.452Z,3.53
2018-04-17T22:38:52.155Z,4.67
2018-04-17T22:41:19.837Z,3.90
2018-04-17T22:43:47.551Z,4.10
2018-04-17T22:46:15.221Z,3.97
2018-04-17T22:48:42.892Z,4.87
2018-04-17T22:51:10.621Z,5.67
2018-04-17T22:53:38.331Z,4.43
2018-04-17T22:56:06.007Z,5.00
2018-04-17T22:58:33.692Z,5.80
2018-04-17T23:01:01.352Z,4.53
2018-04-17T23:03:29.011Z,5.40
2018-04-17T23:05:56.638Z,3.57
2018-04-17T23:08:24.239Z,4.40
2018-04-17T23:10:51.924Z,3.90
2018-04-17T23:13:19.575Z,5.00
2018-04-17T23:15:47.211Z,4.27
2018-04-17T23:18:14.865Z,3.63
2018-04-17T23:20:42.481Z,3.90
2018-04-17T23:23:10.122Z,5.50
2018-04-17T23:25:37.729Z,4.47
2018-04-17T23:28:05.368Z,5.40
2018-04-17T23:30:32.951Z,4.70
2018-04-17T23:33:00.589Z,4.10
2018-04-17T23:35:28.240Z,3.83
2018-04-17T23:37:55.813Z,4.50
2018-04-17T23:40:23.485Z,4.50
2018-04-17T23:42:51.065Z,3.90
2018-04-17T23:45:18.701Z,4.47
2018-04-17T23:47:46.343Z,4.10
2018-04-17T23:50:13.952Z,4.90
2018-04-17T23:52:41.552Z,3.83
2018-04-17T23:55:09.251Z,5.87
2018-04-17T23:57:36.930Z,4.20
